createdAt,value
2023-04-02T00:02:22.966Z,100183.38
2023-04-02T00:05:19.451Z,100185.78
2023-04-02T00:07:51.260Z,100195.56
2023-04-02T00:10:28.284Z,100202.88
2023-04-02T00:13:34.074Z,100200.13
2023-04-02T00:16:03.285Z,100204.84
2023-04-02T00:18:30.965Z,100211.88
2023-04-02T00:21:22.094Z,100214.03
2023-04-02T00:23:48.571Z,100219.16
2023-04-02T00:26:21.691Z,100223.78
2023-04-02T00:28:48.056Z,100221.63
2023-04-02T00:31:14.593Z,100226.56
2023-04-02T00:33:43.597Z,100230.59
2023-04-02T00:36:10.011Z,100231.97
2023-04-02T00:38:36.842Z,100236.31
2023-04-02T00:41:06.375Z,100246.97
2023-04-02T00:43:38.510Z,100245.09
2023-04-02T00:46:14.130Z,100251.31
2023-04-02T00:48:52.664Z,100257.53
2023-04-02T00:51:36.498Z,100257.78
2023-04-02T00:54:06.594Z,100259.56
2023-04-02T00:56:43.200Z,100267.94
2023-04-02T00:59:29.648Z,100273.06
2023-04-02T01:02:18.741Z,100275.38
2023-04-02T01:05:11.335Z,100276.22
2023-04-02T01:08:16.707Z,100278.34
2023-04-02T01:10:58.319Z,100293.50
2023-04-02T01:13:41.747Z,100287.34
2023-04-02T01:16:33.105Z,100295.81
2023-04-02T01:19:31.821Z,100302.25
2023-04-02T01:22:30.873Z,100308.41
2023-04-02T01:24:58.282Z,100316.16
2023-04-02T01:27:34.634Z,100319.03
2023-04-02T01:30:03.225Z,100323.25
2023-04-02T01:32:30.354Z,100333.00
2023-04-02T01:34:57.473Z,100331.78
2023-04-02T01:37:49.622Z,100341.63
2023-04-02T01:40:33.578Z,100348.69
2023-04-02T01:43:18.106Z,100351.97
2023-04-02T01:45:44.552Z,100354.91
2023-04-02T01:48:27.282Z,100359.44
2023-04-02T01:50:56.864Z,100360.34
2023-04-02T01:53:25.858Z,100376.16
2023-04-02T01:55:55.346Z,100378.16
2023-04-02T01:58:25.339Z,100373.06
2023-04-02T02:01:05.783Z,100381.75
2023-04-02T02:03:33.626Z,100394.03
2023-04-02T02:06:01.901Z,100394.72
2023-04-02T02:08:39.088Z,100398.75
2023-04-02T02:11:08.430Z,100409.34
2023-04-02T02:13:34.781Z,100403.81
2023-04-02T02:16:03.918Z,100415.16
2023-04-02T02:18:31.072Z,100417.47
2023-04-02T02:21:01.069Z,100419.38
2023-04-02T02:23:29.748Z,100425.94
2023-04-02T02:25:56.507Z,100430.09
2023-04-02T02:28:31.204Z,100429.75
2023-04-02T02:31:02.728Z,100438.34
2023-04-02T02:33:36.892Z,100445.88
2023-04-02T02:36:24.083Z,100451.22
2023-04-02T02:38:57.792Z,100462.34
2023-04-02T02:41:42.041Z,100465.59
2023-04-02T02:44:08.477Z,100463.28
2023-04-02T02:46:39.307Z,100473.94
2023-04-02T02:49:07.236Z,100480.88
2023-04-02T02:51:45.322Z,100480.88
2023-04-02T02:54:13.988Z,100486.28
2023-04-02T02:56:47.037Z,100484.53
2023-04-02T02:59:16.030Z,100492.47
2023-04-02T03:01:44.183Z,100501.28
2023-04-02T03:04:11.032Z,100508.34
2023-04-02T03:06:37.671Z,100516.03
2023-04-02T03:09:15.806Z,100503.50
2023-04-02T03:12:08.622Z,100515.75
2023-04-02T03:14:46.346Z,100520.47
2023-04-02T03:17:36.779Z,100530.22
2023-04-02T03:20:40.894Z,100534.00
2023-04-02T03:23:19.165Z,100541.03
2023-04-02T03:26:04.855Z,100550.59
2023-04-02T03:28:35.545Z,100561.63
2023-04-02T03:31:14.018Z,100561.13
2023-04-02T03:33:46.004Z,100567.13
2023-04-02T03:36:43.476Z,100579.97
2023-04-02T03:39:31.789Z,100579.72
2023-04-02T03:42:15.493Z,100588.28
2023-04-02T03:44:51.294Z,100587.56
2023-04-02T03:47:43.832Z,100599.22
2023-04-02T03:50:28.749Z,100603.31
2023-04-02T03:52:57.961Z,100608.56
2023-04-02T03:55:28.797Z,100612.47
2023-04-02T03:58:17.004Z,100618.47
2023-04-02T04:01:05.683Z,100622.25
2023-04-02T04:03:45.786Z,100631.97
2023-04-02T04:06:21.323Z,100633.88
2023-04-02T04:08:55.959Z,100646.41
2023-04-02T04:11:27.490Z,100652.78
2023-04-02T04:14:07.502Z,100646.31
2023-04-02T04:16:49.412Z,100666.16
2023-04-02T04:19:21.880Z,100672.00
2023-04-02T04:21:48.423Z,100665.78
2023-04-02T04:24:22.625Z,100680.31
2023-04-02T04:27:03.611Z,100679.34
2023-04-02T04:29:55.735Z,100687.94
2023-04-02T04:32:32.531Z,100696.63
2023-04-02T04:35:29.350Z,100707.44
2023-04-02T04:38:14.591Z,100717.06
2023-04-02T04:40:52.345Z,100712.03
2023-04-02T04:43:30.047Z,100726.19
2023-04-02T04:46:03.434Z,100726.56
2023-04-02T04:48:46.180Z,100733.09
2023-04-02T04:51:27.233Z,100743.91
2023-04-02T04:53:55.716Z,100743.25
2023-04-02T04:56:28.372Z,100749.63
2023-04-02T04:58:57.690Z,100763.13
2023-04-02T05:01:40.680Z,100765.38
2023-04-02T05:04:23.854Z,100779.94
2023-04-02T05:07:09.254Z,100790.44
2023-04-02T05:09:44.104Z,100790.34
2023-04-02T05:12:22.587Z,100793.72
2023-04-02T05:14:58.853Z,100800.94
2023-04-02T05:17:33.825Z,100809.94
2023-04-02T05:20:09.958Z,100808.16
2023-04-02T05:22:50.910Z,100814.88
2023-04-02T05:25:24.324Z,100828.56
2023-04-02T05:28:26.666Z,100827.75
2023-04-02T05:31:02.982Z,100834.78
2023-04-02T05:33:31.686Z,100842.66
2023-04-02T05:36:05.701Z,100843.47
2023-04-02T05:38:35.581Z,100852.25
2023-04-02T05:41:05.832Z,100857.66
2023-04-02T05:43:35.396Z,100860.16
2023-04-02T05:46:12.681Z,100862.41
2023-04-02T05:48:43.375Z,100869.91
2023-04-02T05:51:17.897Z,100878.97
2023-04-02T05:53:55.412Z,100888.69
2023-04-02T05:56:24.708Z,100894.34
2023-04-02T05:58:55.944Z,100895.59
2023-04-02T06:01:25.352Z,100901.94
2023-04-02T06:04:13.260Z,100907.78
2023-04-02T06:06:39.675Z,100907.72
2023-04-02T06:09:12.996Z,100923.66
2023-04-02T06:11:47.680Z,100923.94
2023-04-02T06:14:16.056Z,100933.94
2023-04-02T06:16:45.974Z,100939.69
2023-04-02T06:19:22.230Z,100945.88
2023-04-02T06:21:52.607Z,100954.59
2023-04-02T06:24:25.048Z,100961.88
2023-04-02T06:27:02.618Z,100967.09
2023-04-02T06:29:42.538Z,100967.31
2023-04-02T06:32:11.910Z,100971.88
2023-04-02T06:34:40.894Z,100976.63
2023-04-02T06:37:21.191Z,100992.94
2023-04-02T06:39:47.827Z,100998.06
2023-04-02T06:42:19.677Z,100993.09
2023-04-02T06:44:46.292Z,100999.22
2023-04-02T06:47:28.743Z,101006.72
2023-04-02T06:49:59.010Z,101019.13
2023-04-02T06:52:51.602Z,101020.16
2023-04-02T06:55:30.066Z,101026.25
2023-04-02T06:57:56.849Z,101032.31
2023-04-02T07:00:36.104Z,101043.78
2023-04-02T07:03:06.470Z,101047.09
2023-04-02T07:05:33.162Z,101053.34
2023-04-02T07:07:59.754Z,101055.44
2023-04-02T07:10:26.157Z,101063.34
2023-04-02T07:12:52.621Z,101069.53
2023-04-02T07:15:19.819Z,101078.06
2023-04-02T07:17:46.959Z,101084.28
2023-04-02T07:20:27.239Z,101088.28
2023-04-02T07:22:54.030Z,101102.34
2023-04-02T07:25:20.695Z,101107.53
2023-04-02T07:27:47.749Z,101112.28
2023-04-02T07:30:14.470Z,101132.66
2023-04-02T07:32:41.442Z,101131.63
2023-04-02T07:35:08.489Z,101131.38
2023-04-02T07:37:34.906Z,101131.81
2023-04-02T07:40:01.210Z,101137.81
2023-04-02T07:42:27.592Z,101153.81
2023-04-02T07:44:53.968Z,101158.78
2023-04-02T07:47:20.312Z,101162.94
2023-04-02T07:49:46.982Z,101164.19
2023-04-02T07:52:13.485Z,101172.91
2023-04-02T07:54:39.942Z,101170.63
2023-04-02T07:57:06.374Z,101175.78
2023-04-02T07:59:32.881Z,101181.59
2023-04-02T08:01:59.617Z,101187.63
2023-04-02T08:04:27.342Z,101190.13
2023-04-02T08:06:53.816Z,101195.72
2023-04-02T08:09:20.264Z,101199.47
2023-04-02T08:11:46.857Z,101206.91
2023-04-02T08:14:14.062Z,101210.69
2023-04-02T08:16:52.864Z,101215.25
2023-04-02T08:19:20.000Z,101218.16
2023-04-02T08:21:50.324Z,101220.63
2023-04-02T08:24:19.724Z,101238.09
2023-04-02T08:26:48.137Z,101242.63
2023-04-02T08:29:14.813Z,101246.78
2023-04-02T08:31:41.725Z,101254.28
2023-04-02T08:34:08.340Z,101257.59
2023-04-02T08:36:37.933Z,101267.75
2023-04-02T08:39:10.894Z,101263.41
2023-04-02T08:41:44.282Z,101279.59
2023-04-02T08:44:29.757Z,101277.72
2023-04-02T08:47:03.872Z,101292.91
2023-04-02T08:49:44.846Z,101297.84
2023-04-02T08:52:22.605Z,101300.34
2023-04-02T08:54:49.830Z,101310.31
2023-04-02T08:57:48.815Z,101312.81
2023-04-02T09:00:15.806Z,101314.50
2023-04-02T09:02:52.637Z,101322.78
2023-04-02T09:05:25.907Z,101336.06
2023-04-02T09:07:54.969Z,101336.47
2023-04-02T09:10:31.353Z,101337.34
2023-04-02T09:12:58.582Z,101338.78
2023-04-02T09:15:34.001Z,101356.63
2023-04-02T09:18:13.603Z,101343.13
2023-04-02T09:20:40.819Z,101348.53
2023-04-02T09:23:16.741Z,101350.22
2023-04-02T09:25:57.422Z,101358.50
2023-04-02T09:28:29.673Z,101365.16
2023-04-02T09:31:07.337Z,101370.75
2023-04-02T09:33:41.988Z,101375.94
2023-04-02T09:36:29.008Z,101384.69
2023-04-02T09:38:59.371Z,101395.88
2023-04-02T09:41:29.566Z,101398.78
2023-04-02T09:44:13.039Z,101409.19
2023-04-02T09:46:48.802Z,101417.69
2023-04-02T09:49:21.317Z,101421.63
2023-04-02T09:52:16.292Z,101422.91
2023-04-02T09:54:42.878Z,101432.44
2023-04-02T09:57:24.325Z,101437.66
2023-04-02T10:00:25.311Z,101443.25
2023-04-02T10:03:23.274Z,101455.94
2023-04-02T10:06:04.607Z,101456.16
2023-04-02T10:08:32.386Z,101458.63
2023-04-02T10:11:06.164Z,101470.28
2023-04-02T10:13:46.190Z,101474.81
2023-04-02T10:16:19.860Z,101481.88
2023-04-02T10:18:53.854Z,101479.81
2023-04-02T10:21:27.019Z,101488.97
2023-04-02T10:23:54.733Z,101488.59
2023-04-02T10:26:42.055Z,101488.56
2023-04-02T10:29:44.065Z,101506.25
2023-04-02T10:32:30.781Z,101507.28
2023-04-02T10:35:14.008Z,101512.28
2023-04-02T10:37:47.120Z,101511.47
2023-04-02T10:40:34.961Z,101515.19
2023-04-02T10:43:07.415Z,101521.03
2023-04-02T10:45:44.601Z,101514.78
2023-04-02T10:48:21.485Z,101520.41
2023-04-02T10:51:03.389Z,101521.44
2023-04-02T10:53:50.231Z,101528.09
2023-04-02T10:56:16.988Z,101529.53
2023-04-02T10:59:13.568Z,101540.56
2023-04-02T11:01:43.310Z,101546.59
2023-04-02T11:04:23.837Z,101554.28
2023-04-02T11:07:11.114Z,101558.44
2023-04-02T11:09:45.428Z,101568.00
2023-04-02T11:12:22.781Z,101571.34
2023-04-02T11:14:50.772Z,101574.44
2023-04-02T11:17:18.426Z,101575.50
2023-04-02T11:19:44.821Z,101582.34
2023-04-02T11:22:17.278Z,101589.66
2023-04-02T11:24:52.513Z,101584.66
2023-04-02T11:27:30.517Z,101594.66
2023-04-02T11:30:22.489Z,101595.06
2023-04-02T11:32:49.765Z,101603.78
2023-04-02T11:35:31.629Z,101613.38
2023-04-02T11:38:21.079Z,101615.84
2023-04-02T11:40:51.564Z,101617.09
2023-04-02T11:43:33.236Z,101616.03
2023-04-02T11:46:06.418Z,101618.56
2023-04-02T11:48:36.052Z,101615.44
2023-04-02T11:51:21.506Z,101617.97
2023-04-02T11:53:53.874Z,101625.00
2023-04-02T11:56:33.754Z,101627.91
2023-04-02T11:59:27.534Z,101627.50
2023-04-02T12:02:02.908Z,101627.72
2023-04-02T12:04:56.486Z,101628.75
2023-04-02T12:08:07.409Z,101619.81
2023-04-02T12:10:52.508Z,101630.84
2023-04-02T12:13:41.896Z,101635.00
2023-04-02T12:16:12.923Z,101644.97
2023-04-02T12:18:44.723Z,101643.72
2023-04-02T12:21:16.310Z,101651.22
2023-04-02T12:23:46.321Z,101654.56
2023-04-02T12:26:37.024Z,101662.69
2023-04-02T12:29:21.984Z,101670.41
2023-04-02T12:31:48.572Z,101672.47
2023-04-02T12:34:20.488Z,101675.16
2023-04-02T12:37:04.553Z,101682.84
2023-04-02T12:39:33.153Z,101685.34
2023-04-02T12:41:59.762Z,101690.38
2023-04-02T12:44:30.447Z,101690.13
2023-04-02T12:46:58.695Z,101691.22
2023-04-02T12:49:38.635Z,101691.00
2023-04-02T12:52:12.350Z,101695.75
2023-04-02T12:54:48.694Z,101687.44
2023-04-02T12:57:38.170Z,101701.56
2023-04-02T13:00:25.013Z,101702.84
2023-04-02T13:02:58.541Z,101697.88
2023-04-02T13:05:37.376Z,101705.34
2023-04-02T13:08:05.594Z,101707.84
2023-04-02T13:10:32.350Z,101714.50
2023-04-02T13:13:01.867Z,101718.47
2023-04-02T13:15:31.901Z,101715.75
2023-04-02T13:18:17.245Z,101713.72
2023-04-02T13:20:58.039Z,101722.00
2023-04-02T13:23:30.864Z,101726.22
2023-04-02T13:25:59.579Z,101729.75
2023-04-02T13:28:26.441Z,101734.97
2023-04-02T13:30:52.863Z,101724.75
2023-04-02T13:33:20.278Z,101731.84
2023-04-02T13:35:47.006Z,101730.59
2023-04-02T13:38:13.463Z,101732.25
2023-04-02T13:40:40.089Z,101733.47
2023-04-02T13:43:08.047Z,101740.34
2023-04-02T13:45:39.085Z,101737.66
2023-04-02T13:48:06.116Z,101745.56
2023-04-02T13:50:34.963Z,101747.00
2023-04-02T13:53:09.703Z,101757.25
2023-04-02T13:55:41.931Z,101760.78
2023-04-02T13:58:09.800Z,101762.41
2023-04-02T14:00:37.846Z,101769.09
2023-04-02T14:03:09.945Z,101775.38
2023-04-02T14:06:00.683Z,101777.00
2023-04-02T14:08:46.508Z,101769.94
2023-04-02T14:11:45.157Z,101776.59
2023-04-02T14:14:35.407Z,101773.88
2023-04-02T14:17:17.386Z,101779.91
2023-04-02T14:19:52.528Z,101782.81
2023-04-02T14:22:28.332Z,101780.72
2023-04-02T14:25:06.097Z,101800.31
2023-04-02T14:27:47.202Z,101800.25
2023-04-02T14:30:27.271Z,101803.13
2023-04-02T14:33:05.387Z,101801.47
2023-04-02T14:35:36.395Z,101814.81
2023-04-02T14:38:13.741Z,101810.22
2023-04-02T14:40:56.136Z,101813.94
2023-04-02T14:43:25.584Z,101818.97
2023-04-02T14:46:06.514Z,101827.50
2023-04-02T14:48:44.097Z,101824.59
2023-04-02T14:51:51.385Z,101826.59
2023-04-02T14:54:38.508Z,101834.13
2023-04-02T14:57:33.343Z,101842.25
2023-04-02T15:00:37.784Z,101847.88
2023-04-02T15:03:24.810Z,101850.09
2023-04-02T15:05:58.818Z,101847.19
2023-04-02T15:08:28.699Z,101854.91
2023-04-02T15:11:25.892Z,101858.84
2023-04-02T15:14:03.796Z,101861.97
2023-04-02T15:16:32.272Z,101859.84
2023-04-02T15:19:00.770Z,101865.88
2023-04-02T15:21:34.251Z,101870.22
2023-04-02T15:24:22.697Z,101873.81
2023-04-02T15:26:59.108Z,101868.00
2023-04-02T15:29:47.575Z,101873.72
2023-04-02T15:32:32.216Z,101874.94
2023-04-02T15:35:08.835Z,101877.06
2023-04-02T15:37:53.930Z,101879.50
2023-04-02T15:40:48.487Z,101879.19
2023-04-02T15:43:38.181Z,101890.81
2023-04-02T15:46:16.303Z,101897.69
2023-04-02T15:49:06.046Z,101909.22
2023-04-02T15:51:53.734Z,101906.44
2023-04-02T15:54:45.939Z,101907.94
2023-04-02T15:57:24.541Z,101915.44
2023-04-02T16:00:04.109Z,101925.59
2023-04-02T16:02:48.839Z,101929.41
2023-04-02T16:05:22.389Z,101933.19
2023-04-02T16:08:06.921Z,101936.91
2023-04-02T16:10:42.045Z,101942.28
2023-04-02T16:13:25.872Z,101953.09
2023-04-02T16:16:27.843Z,101963.66
2023-04-02T16:19:25.499Z,101959.47
2023-04-02T16:22:06.851Z,101960.94
2023-04-02T16:24:33.226Z,101978.59
2023-04-02T16:27:15.002Z,101969.31
2023-04-02T16:30:13.107Z,101983.63
2023-04-02T16:33:07.478Z,101975.41
2023-04-02T16:35:56.771Z,101982.50
2023-04-02T16:38:58.653Z,101984.09
2023-04-02T16:41:44.238Z,101998.25
2023-04-02T16:44:28.583Z,101995.09
2023-04-02T16:47:19.730Z,102006.50
2023-04-02T16:50:04.708Z,102002.69
2023-04-02T16:52:56.833Z,102013.41
2023-04-02T16:55:37.166Z,102019.78
2023-04-02T16:58:38.152Z,102023.53
2023-04-02T17:01:43.311Z,102028.81
2023-04-02T17:04:28.386Z,102029.91
2023-04-02T17:07:10.386Z,102040.84
2023-04-02T17:09:48.242Z,102041.72
2023-04-02T17:12:27.488Z,102048.84
2023-04-02T17:15:03.256Z,102047.03
2023-04-02T17:17:30.323Z,102056.81
2023-04-02T17:20:00.412Z,102054.31
2023-04-02T17:22:30.719Z,102058.94
2023-04-02T17:25:00.253Z,102059.28
2023-04-02T17:27:37.300Z,102056.81
2023-04-02T17:30:15.479Z,102060.13
2023-04-02T17:32:42.721Z,102065.56
2023-04-02T17:35:39.953Z,102067.63
2023-04-02T17:38:34.689Z,102073.09
2023-04-02T17:41:07.941Z,102073.97
2023-04-02T17:43:53.139Z,102079.75
2023-04-02T17:46:34.861Z,102077.25
2023-04-02T17:49:24.397Z,102090.75
2023-04-02T17:52:15.133Z,102085.50
2023-04-02T17:54:42.441Z,102091.47
2023-04-02T17:57:37.346Z,102097.28
2023-04-02T18:00:25.357Z,102098.59
2023-04-02T18:03:07.554Z,102101.31
2023-04-02T18:05:44.852Z,102109.69
2023-04-02T18:08:44.430Z,102107.69
2023-04-02T18:11:18.908Z,102118.59
2023-04-02T18:13:55.143Z,102118.97
2023-04-02T18:16:36.150Z,102116.53
2023-04-02T18:19:16.516Z,102128.69
2023-04-02T18:22:02.094Z,102135.97
2023-04-02T18:24:46.430Z,102129.78
2023-04-02T18:27:27.932Z,102141.69
2023-04-02T18:30:13.251Z,102149.53
2023-04-02T18:32:49.842Z,102153.00
2023-04-02T18:35:30.547Z,102153.28
2023-04-02T18:38:18.787Z,102160.28
2023-04-02T18:40:54.239Z,102156.94
2023-04-02T18:43:32.703Z,102162.59
2023-04-02T18:46:11.241Z,102161.00
2023-04-02T18:49:19.197Z,102148.75
2023-04-02T18:51:49.088Z,102169.50
2023-04-02T18:54:25.322Z,102173.66
2023-04-02T18:56:51.747Z,102185.06
2023-04-02T18:59:38.096Z,102184.28
2023-04-02T19:02:24.451Z,102185.94
2023-04-02T19:05:23.476Z,102188.78
2023-04-02T19:07:55.113Z,102191.75
2023-04-02T19:10:37.006Z,102200.63
2023-04-02T19:13:12.725Z,102205.41
2023-04-02T19:15:46.105Z,102211.16
2023-04-02T19:18:25.661Z,102208.84
2023-04-02T19:21:04.594Z,102218.16
2023-04-02T19:23:49.631Z,102226.47
2023-04-02T19:26:22.618Z,102220.31
2023-04-02T19:29:02.617Z,102215.84
2023-04-02T19:31:39.487Z,102224.72
2023-04-02T19:34:23.895Z,102233.66
2023-04-02T19:37:06.145Z,102232.53
2023-04-02T19:40:01.143Z,102237.00
2023-04-02T19:42:50.836Z,102239.91
2023-04-02T19:45:39.547Z,102242.25
2023-04-02T19:48:11.215Z,102247.81
2023-04-02T19:50:38.215Z,102252.94
2023-04-02T19:53:04.551Z,102261.59
2023-04-02T19:55:30.984Z,102265.72
2023-04-02T19:58:08.437Z,102262.94
2023-04-02T20:00:39.446Z,102279.19
2023-04-02T20:03:05.944Z,102269.03
2023-04-02T20:05:32.347Z,102264.88
2023-04-02T20:07:58.758Z,102268.22
2023-04-02T20:10:25.109Z,102277.72
2023-04-02T20:12:51.554Z,102288.81
2023-04-02T20:15:17.897Z,102286.19
2023-04-02T20:17:44.306Z,102281.38
2023-04-02T20:20:13.387Z,102283.88
2023-04-02T20:22:39.736Z,102292.53
2023-04-02T20:25:06.498Z,102293.66
2023-04-02T20:27:32.841Z,102297.84
2023-04-02T20:29:59.194Z,102297.28
2023-04-02T20:32:25.664Z,102294.19
2023-04-02T20:34:53.179Z,102302.47
2023-04-02T20:37:19.976Z,102302.66
2023-04-02T20:39:46.430Z,102304.31
2023-04-02T20:42:14.119Z,102317.81
2023-04-02T20:44:41.315Z,102310.00
2023-04-02T20:47:08.461Z,102317.81
2023-04-02T20:49:35.251Z,102313.59
2023-04-02T20:52:01.818Z,102315.66
2023-04-02T20:54:28.112Z,102321.03
2023-04-02T20:56:54.548Z,102323.91
2023-04-02T20:59:21.057Z,102323.38
2023-04-02T21:01:47.573Z,102325.13
2023-04-02T21:04:14.205Z,102327.47
2023-04-02T21:06:41.158Z,102326.91
2023-04-02T21:09:14.422Z,102335.81
2023-04-02T21:11:41.352Z,102330.44
2023-04-02T21:14:07.854Z,102336.34
2023-04-02T21:16:35.267Z,102343.25
2023-04-02T21:19:04.986Z,102340.25
2023-04-02T21:21:32.122Z,102339.41
2023-04-02T21:24:00.961Z,102339.09
2023-04-02T21:26:30.149Z,102343.84
2023-04-02T21:28:57.287Z,102344.56
2023-04-02T21:31:27.539Z,102342.94
2023-04-02T21:33:56.120Z,102343.47
2023-04-02T21:36:28.364Z,102341.34
2023-04-02T21:38:58.432Z,102340.34
2023-04-02T21:41:30.334Z,102339.84
2023-04-02T21:43:58.493Z,102348.50
2023-04-02T21:46:28.011Z,102347.88
2023-04-02T21:48:56.577Z,102344.81
2023-04-02T21:51:28.688Z,102352.47
2023-04-02T21:53:55.251Z,102354.34
2023-04-02T21:56:24.073Z,102356.03
2023-04-02T21:58:51.337Z,102353.03
2023-04-02T22:01:26.686Z,102352.38
2023-04-02T22:03:55.411Z,102361.16
2023-04-02T22:06:23.635Z,102359.88
2023-04-02T22:08:56.307Z,102361.38
2023-04-02T22:11:26.045Z,102360.69
2023-04-02T22:13:53.226Z,102363.56
2023-04-02T22:16:21.876Z,102368.97
2023-04-02T22:18:50.191Z,102363.09
2023-04-02T22:21:17.453Z,102375.03
2023-04-02T22:23:44.378Z,102367.97
2023-04-02T22:26:11.940Z,102374.19
2023-04-02T22:28:38.402Z,102374.06
2023-04-02T22:31:08.108Z,102371.34
2023-04-02T22:33:35.676Z,102375.22
2023-04-02T22:36:02.083Z,102377.75
2023-04-02T22:38:29.046Z,102382.47
2023-04-02T22:41:04.511Z,102382.47
2023-04-02T22:43:31.682Z,102392.88
2023-04-02T22:45:58.086Z,102389.50
2023-04-02T22:48:24.649Z,102397.94
2023-04-02T22:50:51.985Z,102400.13
2023-04-02T22:53:19.486Z,102402.66
2023-04-02T22:55:46.236Z,102402.13
2023-04-02T22:58:12.641Z,102406.50
2023-04-02T23:00:39.401Z,102405.50
2023-04-02T23:03:06.205Z,102410.22
2023-04-02T23:05:32.946Z,102413.06
2023-04-02T23:07:59.260Z,102417.78
2023-04-02T23:10:28.969Z,102414.41
2023-04-02T23:12:57.160Z,102427.84
2023-04-02T23:15:23.533Z,102415.09
2023-04-02T23:17:50.007Z,102409.34
2023-04-02T23:20:16.597Z,102421.25
2023-04-02T23:22:42.941Z,102414.69
2023-04-02T23:25:09.441Z,102413.00
2023-04-02T23:27:35.853Z,102424.41
2023-04-02T23:30:02.224Z,102409.94
2023-04-02T23:32:28.624Z,102412.94
2023-04-02T23:34:55.110Z,102412.50
2023-04-02T23:37:21.511Z,102418.72
2023-04-02T23:39:47.802Z,102421.59
2023-04-02T23:42:14.137Z,102414.03
2023-04-02T23:44:40.633Z,102422.78
2023-04-02T23:47:07.086Z,102421.38
2023-04-02T23:49:33.694Z,102413.81
2023-04-02T23:52:00.152Z,102413.66
2023-04-02T23:54:26.760Z,102418.06
2023-04-02T23:56:53.158Z,102419.09
2023-04-02T23:59:19.623Z,102417.69
